Time;durP1;ratioP1;P1;durP2;ratioP2;P2;SDS_P1;SDS_P2;PMS_P1;PMS_P2;Temp;Humidity;BMP_temperature;BMP_pressure;BME280_temperature;BME280_humidity;BME280_pressure;Samples;Min_cycle;Max_cycle;Signal;HPM_P1;HPM_P2
2021/05/26 04:35:01;;;;;;;5.78;2.97;;;18.80;99.90;;;;;;4615476;29;20114;-77
2021/05/26 04:37:27;;;;;;;6.45;2.60;;;18.90;99.90;;;;;;4792815;29;20047;-79
2021/05/26 04:39:53;;;;;;;8.70;2.25;;;18.90;99.90;;;;;;4795328;29;20028;-77
2021/05/26 04:42:19;;;;;;;6.32;2.38;;;18.90;99.90;;;;;;4795387;29;20049;-81
2021/05/26 04:44:45;;;;;;;6.20;3.08;;;18.90;99.90;;;;;;4806123;29;20415;-75
2021/05/26 04:47:12;;;;;;;9.55;2.78;;;19.00;99.90;;;;;;4810919;29;20035;-74
2021/05/26 04:49:38;;;;;;;6.35;3.05;;;19.00;99.90;;;;;;4798555;29;20042;-74
2021/05/26 04:52:04;;;;;;;7.18;2.40;;;19.00;99.90;;;;;;4795998;29;20042;-74
2021/05/26 04:54:31;;;;;;;7.72;2.70;;;19.00;99.90;;;;;;4812967;29;20039;-74
2021/05/26 04:57:00;;;;;;;8.52;3.08;;;19.10;99.90;;;;;;4797569;29;20490;-73
2021/05/26 04:59:26;;;;;;;10.13;2.83;;;19.10;99.90;;;;;;4798833;29;20384;-75
2021/05/26 05:01:52;;;;;;;10.85;3.72;;;19.10;99.90;;;;;;4793524;29;20031;-75
2021/05/26 05:04:18;;;;;;;10.40;3.22;;;19.20;99.90;;;;;;4796210;29;20038;-75
2021/05/26 05:06:44;;;;;;;9.73;3.00;;;19.20;99.90;;;;;;4797101;29;20031;-75
2021/05/26 05:09:11;;;;;;;8.10;2.93;;;19.30;99.90;;;;;;4798517;29;20043;-75
2021/05/26 05:11:37;;;;;;;7.68;2.40;;;19.30;99.90;;;;;;4796165;29;20027;-75
2021/05/26 05:14:03;;;;;;;6.57;2.10;;;19.30;99.90;;;;;;4794780;29;20034;-75
2021/05/26 05:16:29;;;;;;;8.32;2.40;;;19.40;99.90;;;;;;4796827;29;20032;-75
2021/05/26 05:18:55;;;;;;;7.65;3.35;;;19.40;99.90;;;;;;4798035;29;20472;-74
2021/05/26 05:21:21;;;;;;;13.30;3.17;;;19.50;99.90;;;;;;4792507;29;20039;-75
2021/05/26 05:23:47;;;;;;;5.28;2.30;;;19.50;99.90;;;;;;4795793;29;20035;-75
2021/05/26 05:26:13;;;;;;;9.00;3.33;;;19.50;99.90;;;;;;4794972;29;20039;-75
2021/05/26 05:28:39;;;;;;;6.55;2.25;;;19.50;99.90;;;;;;4795867;29;21533;-75
2021/05/26 05:31:05;;;;;;;6.43;2.10;;;19.60;99.90;;;;;;4793329;29;20549;-75
2021/05/26 05:33:31;;;;;;;7.43;2.95;;;19.60;99.90;;;;;;4797481;29;21398;-75
2021/05/26 05:35:57;;;;;;;6.87;2.53;;;19.60;99.90;;;;;;4799156;29;20133;-75
2021/05/26 05:38:23;;;;;;;7.47;2.80;;;19.70;99.90;;;;;;4800705;29;20092;-76
2021/05/26 05:40:49;;;;;;;7.20;2.72;;;19.70;99.90;;;;;;4794734;29;20034;-75
2021/05/26 05:43:16;;;;;;;7.30;2.17;;;19.80;99.90;;;;;;4792463;29;20058;-76
2021/05/26 05:45:43;;;;;;;7.47;2.45;;;19.80;99.90;;;;;;4796126;29;20035;-77
2021/05/26 05:48:09;;;;;;;8.35;3.13;;;19.90;99.90;;;;;;4796784;29;20107;-76
2021/05/26 05:50:35;;;;;;;7.78;2.40;;;19.90;99.90;;;;;;4792301;29;20026;-78
2021/05/26 05:53:02;;;;;;;4.20;2.92;;;20.00;99.90;;;;;;4793769;29;20117;-76
2021/05/26 05:55:27;;;;;;;3.88;2.38;;;20.10;99.80;;;;;;4797483;29;20392;-75
2021/05/26 05:57:54;;;;;;;6.53;2.57;;;20.20;99.70;;;;;;4796908;29;20033;-76
2021/05/26 06:00:20;;;;;;;6.50;2.70;;;20.30;99.40;;;;;;4797556;29;20276;-75
2021/05/26 06:02:47;;;;;;;4.30;2.55;;;20.30;98.90;;;;;;4796260;29;20035;-76
2021/05/26 06:05:14;;;;;;;5.10;2.17;;;20.40;98.20;;;;;;4798365;29;20129;-76
2021/05/26 06:07:40;;;;;;;6.47;2.22;;;20.50;97.80;;;;;;4798496;29;20530;-75
2021/05/26 06:10:07;;;;;;;2.45;1.60;;;20.50;96.60;;;;;;4795528;29;20412;-75
2021/05/26 06:12:33;;;;;;;4.78;2.10;;;20.50;96.90;;;;;;4794481;29;20039;-77
2021/05/26 06:14:59;;;;;;;3.88;1.77;;;20.60;97.00;;;;;;4788093;30;20031;-76
2021/05/26 06:17:25;;;;;;;2.40;1.57;;;20.70;96.70;;;;;;4788886;29;20095;-76
2021/05/26 06:19:51;;;;;;;7.97;1.90;;;20.80;96.80;;;;;;4788918;29;20040;-77
2021/05/26 06:22:17;;;;;;;4.68;2.05;;;20.80;96.50;;;;;;4787146;29;20096;-76
2021/05/26 06:24:43;;;;;;;3.72;1.67;;;20.90;95.80;;;;;;4787477;29;20028;-75
2021/05/26 06:27:10;;;;;;;5.10;2.13;;;20.90;94.80;;;;;;4788577;29;20035;-75
2021/05/26 06:29:35;;;;;;;2.30;1.40;;;20.90;95.00;;;;;;4788870;29;20449;-76
2021/05/26 06:32:01;;;;;;;5.97;1.92;;;21.00;95.30;;;;;;4788410;29;20281;-76
2021/05/26 06:34:27;;;;;;;3.00;2.70;;;21.00;94.70;;;;;;4788380;29;20038;-75
2021/05/26 06:36:53;;;;;;;4.03;1.50;;;21.10;93.70;;;;;;4788547;29;20051;-75
2021/05/26 06:39:19;;;;;;;3.72;1.58;;;21.20;93.30;;;;;;4787246;29;20043;-75
2021/05/26 06:41:45;;;;;;;4.00;1.35;;;21.30;93.40;;;;;;4788309;29;20031;-77
2021/05/26 06:44:11;;;;;;;4.78;2.00;;;21.30;93.10;;;;;;4788155;29;20063;-76
2021/05/26 06:46:40;;;;;;;4.72;1.70;;;21.40;92.80;;;;;;4787017;29;20039;-76
2021/05/26 06:49:08;;;;;;;6.05;1.05;;;21.50;92.20;;;;;;4789798;29;20062;-76
2021/05/26 06:51:34;;;;;;;5.95;1.98;;;21.50;92.10;;;;;;4794252;29;20035;-76
2021/05/26 06:54:00;;;;;;;3.15;1.63;;;21.50;92.20;;;;;;4797428;29;20118;-76
2021/05/26 06:56:26;;;;;;;3.17;1.52;;;21.60;92.30;;;;;;4789067;29;20027;-75
2021/05/26 06:58:52;;;;;;;4.68;1.88;;;21.60;92.30;;;;;;4793193;29;20035;-75
2021/05/26 07:01:18;;;;;;;4.43;1.95;;;21.70;92.00;;;;;;4792657;29;20125;-77
2021/05/26 07:03:44;;;;;;;3.42;1.55;;;21.80;91.80;;;;;;4787631;29;20031;-76
2021/05/26 07:06:10;;;;;;;4.37;1.37;;;21.90;91.90;;;;;;4793624;29;20035;-75
2021/05/26 07:08:36;;;;;;;4.32;1.52;;;21.90;92.40;;;;;;4791699;29;20394;-76
2021/05/26 07:11:03;;;;;;;5.10;1.98;;;22.10;92.20;;;;;;4793659;29;20118;-75
2021/05/26 07:13:29;;;;;;;5.72;1.50;;;22.10;91.00;;;;;;4792521;29;20150;-75
2021/05/26 07:15:55;;;;;;;6.00;1.80;;;22.20;90.90;;;;;;4806892;29;20556;-76
2021/05/26 07:18:22;;;;;;;3.90;2.35;;;22.20;91.10;;;;;;4788399;29;20817;-77
2021/05/26 07:20:48;;;;;;;4.05;1.85;;;22.20;90.80;;;;;;4813898;29;20015;-77
2021/05/26 07:23:16;;;;;;;4.75;2.20;;;22.30;90.40;;;;;;4796667;29;20035;-77
2021/05/26 07:25:42;;;;;;;5.00;1.88;;;22.30;90.20;;;;;;4793366;29;20023;-77
2021/05/26 07:28:09;;;;;;;6.13;1.40;;;22.30;90.20;;;;;;4794823;29;20096;-77
2021/05/26 07:30:35;;;;;;;4.20;1.20;;;22.40;89.00;;;;;;4804797;29;20038;-77
2021/05/26 07:33:01;;;;;;;5.97;1.58;;;22.40;89.50;;;;;;4806182;29;20049;-77
2021/05/26 07:35:27;;;;;;;5.72;2.30;;;22.30;89.40;;;;;;4794732;29;20102;-77
2021/05/26 07:37:53;;;;;;;6.90;1.80;;;22.40;89.60;;;;;;4806671;29;20035;-77
2021/05/26 07:40:19;;;;;;;3.83;1.50;;;22.50;89.90;;;;;;4792412;29;20666;-77
2021/05/26 07:42:45;;;;;;;3.60;1.83;;;22.60;89.00;;;;;;4783841;29;20284;-77
2021/05/26 07:45:11;;;;;;;3.97;1.43;;;22.50;89.10;;;;;;4790050;29;20284;-76
2021/05/26 07:47:37;;;;;;;3.50;1.60;;;22.50;89.70;;;;;;4786589;29;20659;-77
2021/05/26 07:50:05;;;;;;;3.00;1.20;;;22.60;89.80;;;;;;4786496;29;20046;-76
2021/05/26 07:52:31;;;;;;;5.10;2.03;;;22.60;88.10;;;;;;4786766;29;20035;-77
2021/05/26 07:54:58;;;;;;;3.25;1.52;;;22.60;88.00;;;;;;4787011;29;20385;-78
2021/05/26 07:57:24;;;;;;;2.95;1.35;;;22.70;87.30;;;;;;4791514;29;20032;-78
2021/05/26 07:59:50;;;;;;;2.23;1.53;;;22.70;87.90;;;;;;4788869;29;20157;-77
2021/05/26 08:02:17;;;;;;;3.72;1.52;;;22.70;88.60;;;;;;4800181;29;20655;-76
2021/05/26 08:04:43;;;;;;;6.40;2.05;;;22.80;89.70;;;;;;4786850;29;20042;-77
2021/05/26 08:07:09;;;;;;;7.68;2.47;;;23.00;89.60;;;;;;4786397;29;20233;-76
2021/05/26 08:09:39;;;;;;;7.27;2.03;;;23.10;88.50;;;;;;4786222;29;20039;-76
2021/05/26 08:12:08;;;;;;;5.07;2.28;;;23.30;87.50;;;;;;4786354;29;20088;-76
2021/05/26 08:14:37;;;;;;;5.85;1.80;;;23.40;86.30;;;;;;4788963;29;20035;-76
2021/05/26 08:17:04;;;;;;;5.53;2.00;;;23.40;86.30;;;;;;4789018;29;20118;-77
2021/05/26 08:19:30;;;;;;;6.25;1.65;;;23.40;85.90;;;;;;4789997;29;20051;-78
2021/05/26 08:21:56;;;;;;;4.65;1.45;;;23.60;85.00;;;;;;4790021;29;20185;-78
2021/05/26 08:24:22;;;;;;;2.47;1.20;;;23.60;83.00;;;;;;4789699;29;20122;-77
2021/05/26 08:26:49;;;;;;;1.65;1.40;;;23.70;81.40;;;;;;4790086;29;20035;-76
2021/05/26 08:29:15;;;;;;;4.88;1.55;;;23.70;81.90;;;;;;4789572;29;20031;-78
2021/05/26 08:31:41;;;;;;;3.72;2.00;;;23.80;81.00;;;;;;4789670;29;20917;-78
2021/05/26 08:34:08;;;;;;;4.13;1.50;;;23.90;81.00;;;;;;4789561;29;20047;-76
2021/05/26 08:36:34;;;;;;;4.38;2.05;;;24.00;80.30;;;;;;4789453;29;20076;-76
2021/05/26 08:39:00;;;;;;;4.73;2.10;;;23.90;80.40;;;;;;4789647;29;20404;-76
2021/05/26 08:41:26;;;;;;;6.57;1.60;;;23.90;80.80;;;;;;4789406;29;20102;-76
2021/05/26 08:43:53;;;;;;;3.58;1.13;;;24.00;80.00;;;;;;4789016;29;20484;-76
2021/05/26 08:46:21;;;;;;;4.20;1.55;;;24.10;77.80;;;;;;4788926;29;20393;-77
2021/05/26 08:48:47;;;;;;;5.32;1.88;;;24.10;77.80;;;;;;4789363;29;20081;-76
2021/05/26 08:51:15;;;;;;;1.75;1.20;;;24.30;78.40;;;;;;4788329;29;20473;-76
2021/05/26 08:53:42;;;;;;;3.88;1.30;;;24.40;76.20;;;;;;4789575;29;20047;-76
2021/05/26 08:56:08;;;;;;;3.80;1.30;;;24.60;76.50;;;;;;4789095;29;20051;-76
2021/05/26 08:58:41;;;;;;;1.43;1.10;;;24.50;73.70;;;;;;4788381;29;20084;-76
2021/05/26 09:01:07;;;;;;;1.83;1.17;;;24.60;74.20;;;;;;4787684;29;20027;-76
2021/05/26 09:03:35;;;;;;;4.32;1.58;;;24.60;74.20;;;;;;4789260;29;20122;-77
2021/05/26 09:06:01;;;;;;;5.57;2.33;;;24.70;75.40;;;;;;4788828;29;20028;-76
2021/05/26 09:08:27;;;;;;;2.90;1.25;;;24.80;75.60;;;;;;4789222;29;20611;-76
2021/05/26 09:10:58;;;;;;;3.72;1.88;;;24.70;73.20;;;;;;4788918;29;20048;-78
2021/05/26 09:13:38;;;;;;;2.95;1.63;;;24.70;73.70;;;;;;4784256;29;20085;-77
2021/05/26 09:16:08;;;;;;;6.35;1.92;;;24.70;74.90;;;;;;4785959;29;21008;-77
2021/05/26 09:18:53;;;;;;;3.08;1.67;;;24.80;75.40;;;;;;4789119;29;20043;-77
2021/05/26 09:21:39;;;;;;;8.38;2.03;;;24.80;75.80;;;;;;4788712;29;20450;-77
2021/05/26 09:24:22;;;;;;;8.10;1.58;;;24.80;75.80;;;;;;4788888;29;20043;-77
2021/05/26 09:26:50;;;;;;;2.47;1.42;;;25.20;75.40;;;;;;4788980;29;20027;-77
2021/05/26 09:29:22;;;;;;;4.53;1.48;;;25.40;74.40;;;;;;4788030;29;20055;-77
2021/05/26 09:31:48;;;;;;;9.15;2.08;;;25.40;73.00;;;;;;4786029;29;20085;-77
2021/05/26 09:34:35;;;;;;;3.93;1.50;;;25.50;73.40;;;;;;4788274;29;20443;-77
2021/05/26 09:37:02;;;;;;;4.22;1.60;;;25.50;73.60;;;;;;4788001;29;20039;-77
2021/05/26 09:39:57;;;;;;;3.65;1.75;;;25.50;72.90;;;;;;4788072;29;20039;-77
2021/05/26 09:42:35;;;;;;;3.30;1.20;;;25.40;72.30;;;;;;4788115;29;20413;-78
2021/05/26 09:45:04;;;;;;;4.40;1.52;;;25.50;73.00;;;;;;4788461;29;20160;-78
2021/05/26 09:47:43;;;;;;;4.63;1.30;;;25.50;73.10;;;;;;4788389;29;20047;-78
2021/05/26 09:50:22;;;;;;;3.30;1.08;;;25.60;72.40;;;;;;4788098;29;20493;-77
2021/05/26 09:53:19;;;;;;;4.45;0.93;;;25.70;72.30;;;;;;4788171;29;20032;-78
2021/05/26 09:55:48;;;;;;;5.38;2.13;;;25.50;70.90;;;;;;4787727;29;20522;-76
2021/05/26 09:58:18;;;;;;;2.70;1.17;;;25.70;71.90;;;;;;4787520;30;20378;-75
2021/05/26 10:00:46;;;;;;;2.97;1.25;;;25.80;72.50;;;;;;4788248;29;20071;-74
2021/05/26 10:03:12;;;;;;;3.65;0.88;;;25.50;71.40;;;;;;4788130;29;20031;-75
2021/05/26 10:05:39;;;;;;;3.00;1.50;;;25.70;71.00;;;;;;4788541;29;20040;-75
2021/05/26 10:08:25;;;;;;;3.50;0.93;;;25.80;71.10;;;;;;4788234;29;20093;-76
2021/05/26 10:11:04;;;;;;;2.85;1.13;;;25.70;70.80;;;;;;4802328;29;20051;-76
2021/05/26 10:13:33;;;;;;;2.95;1.40;;;25.70;72.60;;;;;;4799092;29;20051;-75
2021/05/26 10:15:59;;;;;;;2.50;1.23;;;25.80;72.50;;;;;;4780406;29;20443;-75
2021/05/26 10:18:26;;;;;;;2.78;1.00;;;26.10;72.30;;;;;;4788472;29;20110;-76
2021/05/26 10:20:52;;;;;;;3.50;1.02;;;26.10;72.40;;;;;;4788318;29;20426;-74
2021/05/26 10:23:19;;;;;;;3.38;1.25;;;25.90;71.40;;;;;;4787778;29;20115;-74
2021/05/26 10:25:47;;;;;;;1.30;0.70;;;25.80;69.90;;;;;;4787989;29;20027;-75
2021/05/26 10:28:31;;;;;;;4.15;1.05;;;25.80;69.70;;;;;;4788040;29;20043;-75
2021/05/26 10:30:59;;;;;;;2.63;1.13;;;25.90;68.60;;;;;;4788221;29;20039;-75
2021/05/26 10:33:44;;;;;;;2.38;1.02;;;26.00;69.60;;;;;;4801350;29;20062;-75
2021/05/26 10:36:11;;;;;;;6.72;1.10;;;26.00;68.50;;;;;;4789012;29;20150;-72
2021/05/26 10:38:59;;;;;;;1.73;0.80;;;25.90;68.90;;;;;;4770132;30;20103;-72
2021/05/26 10:41:51;;;;;;;5.03;1.33;;;26.20;69.50;;;;;;4775476;29;20043;-78
2021/05/26 10:44:18;;;;;;;1.50;1.00;;;26.30;69.30;;;;;;4787491;29;20035;-74
2021/05/26 10:46:48;;;;;;;3.53;1.00;;;26.40;68.50;;;;;;4787962;29;20469;-74
2021/05/26 10:49:14;;;;;;;2.28;0.88;;;26.30;68.90;;;;;;4787871;29;20560;-73
2021/05/26 10:51:52;;;;;;;2.70;1.13;;;26.20;68.00;;;;;;4787278;29;20027;-74
2021/05/26 10:54:40;;;;;;;2.60;0.65;;;26.30;67.70;;;;;;4785311;29;20035;-74
2021/05/26 10:57:07;;;;;;;9.57;1.65;;;26.40;67.60;;;;;;4787271;29;20032;-73
2021/05/26 10:59:34;;;;;;;2.85;0.90;;;26.60;67.30;;;;;;4787324;29;20156;-74
2021/05/26 11:02:03;;;;;;;1.48;0.70;;;26.30;66.40;;;;;;4801147;29;20135;-74
2021/05/26 11:04:30;;;;;;;5.60;1.15;;;26.20;65.20;;;;;;4800808;29;20404;-74
2021/05/26 11:07:20;;;;;;;2.88;0.85;;;25.90;66.10;;;;;;4787357;29;20039;-74
2021/05/26 11:09:54;;;;;;;4.28;0.90;;;25.90;65.60;;;;;;4800555;29;20040;-74
2021/05/26 11:12:20;;;;;;;1.17;0.93;;;26.10;66.00;;;;;;4786649;29;20062;-74
2021/05/26 11:14:53;;;;;;;1.33;0.90;;;26.70;65.70;;;;;;4786468;29;20070;-74
2021/05/26 11:17:20;;;;;;;;;;;27.10;63.50;;;;;;4787110;30;20280;-74
2021/05/26 11:19:46;;;;;;;1.52;0.80;;;27.20;63.10;;;;;;4786578;29;19909;-74
2021/05/26 11:22:15;;;;;;;2.20;1.02;;;27.10;63.10;;;;;;4787002;29;20058;-75
2021/05/26 11:24:45;;;;;;;1.70;1.10;;;27.60;63.00;;;;;;4786911;29;20381;-74
2021/05/26 11:27:15;;;;;;;2.53;1.30;;;27.60;61.50;;;;;;4786787;29;20578;-74
2021/05/26 11:29:41;;;;;;;4.47;1.10;;;27.70;61.20;;;;;;4800812;29;20035;-74
2021/05/26 11:32:09;;;;;;;3.75;1.10;;;27.80;61.10;;;;;;4800510;29;20433;-74
2021/05/26 11:34:35;;;;;;;0.77;0.77;;;27.90;61.50;;;;;;4786844;29;20446;-74
2021/05/26 11:37:02;;;;;;;5.30;0.93;;;27.90;60.70;;;;;;4786365;29;20036;-74
2021/05/26 11:39:30;;;;;;;4.18;1.13;;;28.10;60.80;;;;;;4786987;29;20027;-74
2021/05/26 11:42:30;;;;;;;1.67;0.93;;;27.90;61.00;;;;;;4786987;29;20027;-74
2021/05/26 11:45:07;;;;;;;3.90;1.10;;;28.00;60.90;;;;;;4776254;29;20057;-74
2021/05/26 11:47:41;;;;;;;4.10;1.05;;;27.90;61.10;;;;;;4796751;29;20075;-75
2021/05/26 11:50:14;;;;;;;1.33;1.10;;;27.90;61.40;;;;;;4779419;29;20047;-74
2021/05/26 11:52:41;;;;;;;2.17;0.82;;;28.00;60.80;;;;;;4786755;29;20045;-75
2021/05/26 11:55:08;;;;;;;2.58;0.90;;;28.00;61.20;;;;;;4786632;29;20035;-74
2021/05/26 11:57:39;;;;;;;3.45;1.08;;;28.20;61.60;;;;;;4786547;29;20546;-75
2021/05/26 12:00:07;;;;;;;3.08;1.00;;;28.10;60.70;;;;;;4786631;29;20500;-74
2021/05/26 12:03:02;;;;;;;4.72;1.30;;;28.10;61.00;;;;;;4781723;29;20099;-75
2021/05/26 12:05:50;;;;;;;4.47;1.48;;;28.60;60.90;;;;;;4768992;30;20071;-75
2021/05/26 12:08:20;;;;;;;6.10;1.63;;;28.70;61.00;;;;;;4786373;29;20051;-74
2021/05/26 12:10:57;;;;;;;5.53;1.55;;;28.90;60.70;;;;;;4786678;29;20046;-74
2021/05/26 12:13:46;;;;;;;2.35;1.08;;;28.90;60.70;;;;;;4800315;29;20395;-75
2021/05/26 12:16:14;;;;;;;1.42;1.20;;;28.60;60.40;;;;;;4786600;29;20123;-75
2021/05/26 12:18:49;;;;;;;2.83;1.50;;;28.60;60.40;;;;;;4786370;29;20047;-74
2021/05/26 12:21:16;;;;;;;1.90;1.10;;;28.50;62.10;;;;;;4786575;29;20491;-75
2021/05/26 12:23:44;;;;;;;4.47;1.38;;;28.30;61.50;;;;;;4797143;29;20404;-74
2021/05/26 12:26:24;;;;;;;2.70;0.90;;;28.20;62.10;;;;;;4768665;30;20031;-74
2021/05/26 12:28:51;;;;;;;2.65;1.60;;;28.30;60.80;;;;;;4782008;29;20043;-74
2021/05/26 12:31:18;;;;;;;4.40;1.55;;;28.50;60.90;;;;;;4786448;29;20048;-74
2021/05/26 12:33:46;;;;;;;0.80;0.80;;;28.40;61.30;;;;;;4786815;29;20039;-75
2021/05/26 12:36:12;;;;;;;0.95;0.80;;;28.60;60.10;;;;;;4786083;29;20055;-75
2021/05/26 12:38:41;;;;;;;2.92;0.90;;;28.70;60.00;;;;;;4784816;29;20544;-75
2021/05/26 12:41:33;;;;;;;2.83;0.90;;;28.60;61.00;;;;;;4786792;29;20503;-76
2021/05/26 12:44:23;;;;;;;1.02;0.90;;;28.70;61.20;;;;;;4787013;29;20036;-76
2021/05/26 12:46:52;;;;;;;2.65;1.02;;;28.70;62.00;;;;;;4786288;29;20040;-75
2021/05/26 12:49:39;;;;;;;2.25;1.02;;;28.80;60.80;;;;;;4783264;29;20039;-75
2021/05/26 12:52:10;;;;;;;1.48;0.88;;;28.60;61.20;;;;;;4786547;29;20555;-76
2021/05/26 12:54:54;;;;;;;2.20;0.98;;;28.70;60.90;;;;;;4787336;29;20112;-75
2021/05/26 12:57:23;;;;;;;1.75;1.13;;;28.60;61.10;;;;;;4770370;30;20508;-77
2021/05/26 12:59:54;;;;;;;3.00;1.48;;;28.60;61.60;;;;;;4787665;29;20039;-76
2021/05/26 13:02:26;;;;;;;2.95;1.00;;;28.70;62.60;;;;;;4800585;29;20039;-76
2021/05/26 13:04:52;;;;;;;4.20;1.20;;;28.60;61.70;;;;;;4772052;30;20032;-76
2021/05/26 13:07:29;;;;;;;1.47;0.90;;;28.50;61.50;;;;;;4803436;29;20041;-76
2021/05/26 13:09:57;;;;;;;3.17;1.10;;;28.50;62.10;;;;;;4789286;29;20062;-77
2021/05/26 13:12:28;;;;;;;2.92;1.30;;;28.70;61.20;;;;;;4788574;29;20107;-79
2021/05/26 13:15:14;;;;;;;2.85;2.00;;;28.60;61.10;;;;;;4788910;29;20488;-77
2021/05/26 13:17:43;;;;;;;4.45;2.22;;;28.70;60.30;;;;;;4789223;29;20039;-76
2021/05/26 13:20:23;;;;;;;6.35;2.65;;;28.80;61.30;;;;;;4787191;29;20031;-78
2021/05/26 13:22:53;;;;;;;4.78;2.10;;;29.10;61.40;;;;;;4788675;29;20053;-78
2021/05/26 13:25:21;;;;;;;3.15;1.30;;;29.10;62.00;;;;;;4807517;29;20171;-78
2021/05/26 13:27:51;;;;;;;5.35;1.50;;;29.20;61.50;;;;;;4807451;29;20034;-79
2021/05/26 13:30:19;;;;;;;2.75;1.27;;;29.20;60.70;;;;;;4812389;29;20062;-79
2021/05/26 13:32:47;;;;;;;1.20;0.90;;;28.80;61.40;;;;;;4788964;29;20072;-79
2021/05/26 13:35:14;;;;;;;2.45;1.55;;;28.80;61.90;;;;;;4788314;29;20063;-79
2021/05/26 13:37:40;;;;;;;5.75;1.98;;;29.10;61.60;;;;;;4788308;29;20420;-78
2021/05/26 13:40:08;;;;;;;5.90;2.47;;;29.10;61.80;;;;;;4789048;29;20106;-78
2021/05/26 13:42:35;;;;;;;3.55;1.98;;;29.50;60.90;;;;;;4793441;29;20036;-79
2021/05/26 13:45:02;;;;;;;1.98;1.20;;;29.30;61.20;;;;;;4788762;29;20027;-84
2021/05/26 13:47:28;;;;;;;2.85;1.55;;;29.20;61.20;;;;;;4799743;29;20040;-84
2021/05/26 13:49:54;;;;;;;4.80;1.77;;;29.00;60.70;;;;;;4803049;29;20241;-86
2021/05/26 13:52:20;;;;;;;5.07;1.83;;;29.10;61.20;;;;;;4803390;29;20139;-86
2021/05/26 13:54:46;;;;;;;2.80;1.70;;;29.10;62.70;;;;;;4785535;29;20397;-81
2021/05/26 13:57:12;;;;;;;5.07;2.60;;;28.70;63.10;;;;;;4769837;30;20312;-82
2021/05/26 13:59:38;;;;;;;6.32;3.38;;;28.80;63.40;;;;;;4785309;29;20281;-86
2021/05/26 14:02:04;;;;;;;3.47;1.70;;;28.80;62.70;;;;;;4777481;29;20039;-84
2021/05/26 14:04:30;;;;;;;4.57;1.90;;;29.00;62.30;;;;;;4787119;29;20046;-83
2021/05/26 14:06:56;;;;;;;3.83;1.67;;;29.20;61.90;;;;;;4808142;29;20522;-83
2021/05/26 14:09:22;;;;;;;3.65;1.40;;;29.30;62.20;;;;;;4773430;29;20489;-82
2021/05/26 14:11:49;;;;;;;3.00;1.35;;;29.40;61.50;;;;;;4796874;29;20027;-80
2021/05/26 14:14:15;;;;;;;4.32;1.40;;;29.80;62.10;;;;;;4788670;29;20102;-79
2021/05/26 14:16:41;;;;;;;3.47;1.93;;;30.00;61.10;;;;;;4788429;29;20015;-80
2021/05/26 14:19:07;;;;;;;3.13;2.13;;;30.20;59.30;;;;;;4787266;29;20323;-80
2021/05/26 14:21:33;;;;;;;4.03;2.43;;;29.90;58.20;;;;;;4788438;29;20042;-82
2021/05/26 14:23:59;;;;;;;3.70;2.45;;;29.60;58.50;;;;;;4787291;30;20100;-81
2021/05/26 14:26:25;;;;;;;3.58;1.90;;;29.50;60.00;;;;;;4788535;29;20039;-82
2021/05/26 14:28:52;;;;;;;5.10;1.63;;;29.70;59.40;;;;;;4802085;29;20095;-81
2021/05/26 14:31:18;;;;;;;4.57;1.85;;;29.60;59.00;;;;;;4802096;29;20031;-82
2021/05/26 14:33:44;;;;;;;3.58;2.55;;;29.70;58.80;;;;;;4787522;29;20492;-81
2021/05/26 14:36:12;;;;;;;3.00;2.23;;;30.00;59.00;;;;;;4788204;29;20047;-80
2021/05/26 14:38:56;;;;;;;3.85;2.10;;;30.00;58.10;;;;;;4801423;29;20315;-80
2021/05/26 14:41:24;;;;;;;6.03;2.50;;;30.00;57.40;;;;;;4799662;29;20032;-80
2021/05/26 14:43:51;;;;;;;4.93;2.05;;;29.50;59.20;;;;;;4787094;29;20593;-80
2021/05/26 14:46:17;;;;;;;2.20;1.67;;;29.40;59.20;;;;;;4801304;29;20031;-80
2021/05/26 14:48:44;;;;;;;3.40;1.70;;;29.10;60.00;;;;;;4787801;29;20404;-79
2021/05/26 14:51:10;;;;;;;4.65;1.83;;;29.10;60.30;;;;;;4801433;29;20040;-82
2021/05/26 14:53:40;;;;;;;2.97;1.60;;;29.20;59.90;;;;;;4787347;29;20076;-82
2021/05/26 14:56:07;;;;;;;4.35;2.22;;;29.30;59.50;;;;;;4787479;29;20031;-83
2021/05/26 14:58:35;;;;;;;3.05;1.48;;;29.10;58.70;;;;;;4801264;29;20039;-81
2021/05/26 15:01:01;;;;;;;3.00;1.40;;;28.80;59.80;;;;;;4780028;30;20031;-81
2021/05/26 15:03:27;;;;;;;5.90;2.73;;;28.80;60.50;;;;;;4786224;29;20112;-81
2021/05/26 15:05:52;;;;;;;3.40;1.67;;;28.90;60.20;;;;;;4786120;29;20496;-82
2021/05/26 15:08:20;;;;;;;3.63;1.10;;;28.80;58.20;;;;;;4801547;29;20112;-83
2021/05/26 15:10:46;;;;;;;3.88;1.80;;;29.00;58.30;;;;;;4801631;29;20043;-81
2021/05/26 15:13:12;;;;;;;4.22;1.50;;;29.10;59.90;;;;;;4787377;29;20065;-83
2021/05/26 15:15:38;;;;;;;3.13;1.23;;;29.20;57.90;;;;;;4785886;29;20496;-82
2021/05/26 15:18:04;;;;;;;1.48;1.08;;;29.30;57.40;;;;;;4800180;29;20035;-83
2021/05/26 15:20:30;;;;;;;1.40;0.98;;;29.20;56.00;;;;;;4800954;29;20045;-84
2021/05/26 15:22:56;;;;;;;4.23;1.37;;;28.90;56.20;;;;;;4800971;29;20130;-82
2021/05/26 15:25:23;;;;;;;5.35;1.75;;;28.80;56.90;;;;;;4800330;29;20031;-83
2021/05/26 15:27:49;;;;;;;1.98;1.25;;;29.10;57.60;;;;;;4800707;29;20039;-82
2021/05/26 15:30:15;;;;;;;2.13;1.10;;;29.00;57.30;;;;;;4800344;29;20084;-82
2021/05/26 15:32:41;;;;;;;3.50;1.40;;;29.00;56.80;;;;;;4801206;29;20063;-82
2021/05/26 15:35:08;;;;;;;3.00;1.20;;;28.70;56.50;;;;;;4786986;29;20040;-83
2021/05/26 15:37:34;;;;;;;2.67;1.50;;;28.70;56.80;;;;;;4800816;29;20035;-82
2021/05/26 15:40:01;;;;;;;2.20;1.00;;;28.60;57.80;;;;;;4786211;29;20128;-81
2021/05/26 15:42:27;;;;;;;5.80;1.33;;;28.60;57.80;;;;;;4785792;29;20285;-80
2021/05/26 15:44:54;;;;;;;3.28;1.10;;;28.30;56.90;;;;;;4800992;29;20084;-82
2021/05/26 15:47:20;;;;;;;1.77;1.10;;;28.20;56.70;;;;;;4782614;29;20035;-82
2021/05/26 15:49:46;;;;;;;1.05;0.88;;;28.10;56.50;;;;;;4795518;29;20047;-82
2021/05/26 15:52:12;;;;;;;1.43;0.90;;;28.00;54.70;;;;;;4800902;29;20400;-84
2021/05/26 15:54:38;;;;;;;2.00;0.90;;;27.90;55.20;;;;;;4800838;29;20364;-84
2021/05/26 15:57:05;;;;;;;1.45;0.90;;;27.60;56.30;;;;;;4785531;29;20510;-83
2021/05/26 15:59:31;;;;;;;2.40;1.20;;;27.60;57.50;;;;;;4801032;29;20035;-83
2021/05/26 16:01:57;;;;;;;2.63;1.20;;;27.70;57.70;;;;;;4801021;29;20039;-84
2021/05/26 16:04:23;;;;;;;1.65;0.73;;;27.80;57.30;;;;;;4800829;29;20035;-83
2021/05/26 16:06:50;;;;;;;2.90;0.75;;;27.70;58.10;;;;;;4800492;29;20051;-84
2021/05/26 16:09:16;;;;;;;3.05;0.80;;;27.50;58.50;;;;;;4784943;29;20134;-82
2021/05/26 16:11:42;;;;;;;1.17;0.88;;;27.40;58.70;;;;;;4785943;29;20040;-83
2021/05/26 16:14:09;;;;;;;2.17;0.75;;;27.30;58.20;;;;;;4800679;29;20039;-84
2021/05/26 16:16:36;;;;;;;1.33;0.60;;;27.30;59.00;;;;;;4785871;29;20456;-84
2021/05/26 16:19:02;;;;;;;2.25;0.60;;;27.50;57.80;;;;;;4785515;29;20114;-83
2021/05/26 16:21:28;;;;;;;1.48;0.98;;;27.20;56.20;;;;;;4800775;29;20069;-79
2021/05/26 16:23:54;;;;;;;2.93;0.90;;;27.20;57.10;;;;;;4785634;29;20058;-80
2021/05/26 16:26:21;;;;;;;2.00;0.82;;;27.10;57.50;;;;;;4786540;29;20122;-80
2021/05/26 16:28:49;;;;;;;1.65;0.80;;;27.10;57.70;;;;;;4785350;29;20061;-78
2021/05/26 16:31:22;;;;;;;1.38;0.82;;;27.30;57.80;;;;;;4785583;29;20088;-82
2021/05/26 16:33:50;;;;;;;2.10;0.70;;;27.20;58.80;;;;;;4785519;29;20043;-81
2021/05/26 16:36:16;;;;;;;2.30;0.93;;;27.00;58.40;;;;;;4790134;29;20577;-82
2021/05/26 16:38:42;;;;;;;4.95;1.27;;;26.80;59.00;;;;;;4803988;29;20035;-85
2021/05/26 16:41:08;;;;;;;1.95;0.85;;;26.60;57.20;;;;;;4788801;29;20118;-80
2021/05/26 16:43:34;;;;;;;3.17;0.95;;;26.60;58.30;;;;;;4788562;29;20032;-79
2021/05/26 16:46:00;;;;;;;3.33;0.80;;;26.30;58.50;;;;;;4789608;29;20110;-79
2021/05/26 16:48:26;;;;;;;1.53;1.00;;;26.20;60.30;;;;;;4789485;29;20134;-79
2021/05/26 16:50:52;;;;;;;2.35;0.90;;;26.10;60.60;;;;;;4789019;29;20039;-80
2021/05/26 16:53:18;;;;;;;3.50;1.10;;;26.20;61.90;;;;;;4803747;29;20035;-79
2021/05/26 16:55:44;;;;;;;2.88;1.20;;;26.20;63.40;;;;;;4803433;29;20039;-80
2021/05/26 16:58:11;;;;;;;2.95;1.13;;;26.40;63.50;;;;;;4788537;29;20042;-79
2021/05/26 17:00:37;;;;;;;2.25;1.10;;;26.20;62.80;;;;;;4803830;29;20130;-81
2021/05/26 17:03:03;;;;;;;3.75;1.30;;;26.30;62.50;;;;;;4789861;29;20169;-81
2021/05/26 17:05:29;;;;;;;3.45;1.30;;;26.20;63.20;;;;;;4789758;29;20055;-80
2021/05/26 17:07:55;;;;;;;2.53;1.00;;;26.10;63.10;;;;;;4803593;29;20177;-80
2021/05/26 17:10:21;;;;;;;2.65;1.45;;;26.00;62.70;;;;;;4789830;29;20658;-79
2021/05/26 17:12:49;;;;;;;2.28;1.15;;;26.00;62.70;;;;;;4803163;29;20032;-79
2021/05/26 17:15:15;;;;;;;2.80;1.40;;;25.70;62.60;;;;;;4789603;29;20110;-80
2021/05/26 17:17:42;;;;;;;2.58;1.52;;;25.50;63.40;;;;;;4782385;29;20023;-80
2021/05/26 17:20:12;;;;;;;2.97;1.05;;;25.50;63.70;;;;;;4789504;29;20035;-80
2021/05/26 17:22:38;;;;;;;3.67;1.10;;;25.30;63.20;;;;;;4800144;29;20114;-79
2021/05/26 17:25:06;;;;;;;4.60;1.73;;;25.10;63.70;;;;;;4785768;29;20043;-79
2021/05/26 17:27:33;;;;;;;3.58;1.48;;;24.80;64.70;;;;;;4770349;30;20181;-79
2021/05/26 17:29:58;;;;;;;2.67;1.20;;;24.70;65.20;;;;;;4785288;29;20038;-78